Time;durP1;ratioP1;P1;durP2;ratioP2;P2;SDS_P1;SDS_P2;PMS_P1;PMS_P2;Temp;Humidity;BMP_temperature;BMP_pressure;BME280_temperature;BME280_humidity;BME280_pressure;Samples;Min_cycle;Max_cycle;Signal;HPM_P1;HPM_P2
2023/05/20 07:09:54;;;;;;;7.65;5.47;;;;;;;20.45;49.66;96646.44;5087760;28;20376;-78
2023/05/20 07:12:29;;;;;;;5.65;5.15;;;;;;;19.59;50.78;96656.41;5093031;28;20028;-82
2023/05/20 10:52:08;;;;;;;4.40;3.50;;;;;;;21.80;45.65;96537.06;5819120;23;20046;-76
2023/05/20 10:54:37;;;;;;;3.55;3.25;;;;;;;21.92;45.94;96530.78;5007742;28;20052;-76
2023/05/20 10:57:08;;;;;;;4.60;3.47;;;;;;;22.08;44.62;96536.97;5000094;28;20077;-76
2023/05/20 10:59:36;;;;;;;3.60;3.30;;;;;;;22.11;43.33;96537.25;5012700;28;20061;-77
2023/05/20 11:02:04;;;;;;;3.47;3.17;;;;;;;22.10;43.42;96522.38;4999513;28;20056;-77
2023/05/20 11:04:32;;;;;;;4.38;3.22;;;;;;;22.15;44.09;96521.59;5027253;28;20042;-78
2023/05/20 11:07:00;;;;;;;3.38;3.08;;;;;;;22.21;43.72;96510.75;5046028;28;20501;-77
2023/05/20 11:09:30;;;;;;;3.63;3.33;;;;;;;22.31;44.13;96514.56;5037295;28;20065;-79
2023/05/20 11:11:58;;;;;;;3.92;3.63;;;;;;;22.38;44.23;96515.13;5033203;28;20080;-78
2023/05/20 11:14:28;;;;;;;7.43;3.55;;;;;;;22.42;43.92;96506.34;5025897;28;20081;-77
2023/05/20 11:16:56;;;;;;;5.20;4.55;;;;;;;22.50;44.87;96497.09;5012619;28;20053;-76
2023/05/20 11:19:25;;;;;;;5.57;3.67;;;;;;;22.56;43.74;96504.00;5013910;28;20049;-75
2023/05/20 11:21:53;;;;;;;5.90;3.70;;;;;;;22.57;43.52;96502.16;5011648;28;20137;-75
2023/05/20 11:24:26;;;;;;;4.22;3.83;;;;;;;22.58;42.27;96499.22;5008962;28;20112;-76
2023/05/20 11:26:56;;;;;;;5.65;3.72;;;;;;;22.59;42.81;96500.84;5002592;28;20054;-76
2023/05/20 11:29:27;;;;;;;4.25;3.75;;;;;;;22.59;42.79;96506.16;4992642;28;20042;-76
2023/05/20 11:31:55;;;;;;;3.40;3.10;;;;;;;22.58;42.12;96504.56;5000688;28;20058;-75
2023/05/20 11:34:23;;;;;;;4.60;2.88;;;;;;;22.54;42.73;96503.50;5002279;28;20104;-75
2023/05/20 11:36:56;;;;;;;4.20;3.33;;;;;;;22.53;42.37;96501.09;4998357;28;20134;-75
2023/05/20 11:39:25;;;;;;;4.32;2.75;;;;;;;22.53;42.49;96504.53;5013103;28;20079;-76
2023/05/20 11:41:54;;;;;;;4.38;3.60;;;;;;;22.52;45.63;96502.97;5011087;28;20136;-76
2023/05/20 11:44:22;;;;;;;5.25;3.17;;;;;;;22.51;42.36;96497.88;4999206;28;20042;-79
2023/05/20 11:46:50;;;;;;;3.13;2.88;;;;;;;22.53;42.12;96501.09;4999310;28;20422;-79
2023/05/20 11:49:17;;;;;;;7.50;3.47;;;;;;;22.54;46.96;96500.84;5022068;28;20077;-79
2023/05/20 11:51:45;;;;;;;3.40;3.10;;;;;;;22.50;42.67;96490.97;5004248;28;20141;-80
2023/05/20 11:54:13;;;;;;;3.88;3.30;;;;;;;22.49;42.37;96492.03;5009837;28;20137;-78
2023/05/20 11:56:41;;;;;;;3.97;3.58;;;;;;;22.45;44.54;96494.41;5009915;28;20066;-80
2023/05/20 11:59:10;;;;;;;7.63;3.60;;;;;;;22.45;43.58;96482.97;5016099;28;20057;-80
2023/05/20 12:01:39;;;;;;;5.15;3.30;;;;;;;22.46;46.85;96496.03;5014637;28;20046;-79
2023/05/20 12:04:07;;;;;;;3.58;3.25;;;;;;;22.49;44.21;96484.84;5011521;28;20053;-80
2023/05/20 12:06:37;;;;;;;3.05;2.75;;;;;;;22.50;42.98;96481.16;5029051;28;20133;-80
2023/05/20 12:09:07;;;;;;;3.38;2.97;;;;;;;22.47;42.39;96479.00;5015822;28;20042;-80
2023/05/20 12:11:36;;;;;;;4.80;3.08;;;;;;;22.47;47.00;96476.34;5002754;28;20048;-80
2023/05/20 12:14:04;;;;;;;3.30;3.00;;;;;;;22.46;43.73;96474.75;5034096;28;20060;-78
2023/05/20 12:16:34;;;;;;;6.10;3.40;;;;;;;22.42;43.35;96476.34;5020171;28;20049;-80
2023/05/20 12:19:02;;;;;;;3.78;3.45;;;;;;;22.35;43.68;96475.78;5015968;28;20060;-79
2023/05/20 12:21:31;;;;;;;4.57;3.35;;;;;;;22.29;46.12;96474.16;5015819;28;20053;-80
2023/05/20 12:23:59;;;;;;;3.85;3.05;;;;;;;22.19;43.92;96470.38;5006645;28;20051;-79
2023/05/20 12:26:29;;;;;;;3.88;3.47;;;;;;;22.09;44.27;96467.66;4999011;28;20058;-79
2023/05/20 12:28:57;;;;;;;3.97;3.35;;;;;;;22.03;45.07;96481.97;4997111;28;20050;-79
2023/05/20 12:31:25;;;;;;;4.05;3.08;;;;;;;21.99;43.38;96472.91;5007255;28;20192;-79
2023/05/20 12:33:54;;;;;;;4.38;3.08;;;;;;;21.94;44.91;96473.69;5016088;28;20054;-78
2023/05/20 12:36:22;;;;;;;4.78;2.83;;;;;;;21.89;42.72;96470.22;5012817;28;20054;-79
2023/05/20 12:38:49;;;;;;;4.82;3.15;;;;;;;21.84;43.00;96475.47;5001853;28;20054;-79
2023/05/20 12:41:17;;;;;;;6.57;2.97;;;;;;;21.77;44.63;96473.84;4997744;28;20054;-79
2023/05/20 12:43:45;;;;;;;4.43;3.97;;;;;;;21.72;47.76;96475.69;4996114;28;20084;-79
2023/05/20 12:46:12;;;;;;;3.50;3.20;;;;;;;21.69;45.83;96471.69;5005107;28;20501;-78
2023/05/20 12:48:40;;;;;;;4.15;3.60;;;;;;;21.67;48.12;96479.09;5015772;28;20529;-80
2023/05/20 12:51:10;;;;;;;3.33;3.13;;;;;;;21.66;46.44;96477.50;5019581;28;20049;-79
2023/05/20 12:53:38;;;;;;;6.05;3.63;;;;;;;21.66;47.31;96482.00;5015494;28;20104;-78
2023/05/20 12:56:06;;;;;;;5.25;3.53;;;;;;;21.66;47.67;96476.69;5005221;28;20105;-79
2023/05/20 12:58:34;;;;;;;6.20;3.50;;;;;;;21.66;49.06;96468.72;4996515;28;20117;-79
2023/05/20 13:01:02;;;;;;;9.57;3.35;;;;;;;21.69;46.55;96470.88;4997144;28;20426;-78
2023/05/20 13:03:29;;;;;;;3.92;3.60;;;;;;;21.75;49.60;96464.53;5000305;28;20058;-79
2023/05/20 13:05:58;;;;;;;3.35;3.10;;;;;;;21.80;47.07;96480.53;5021449;28;20480;-79
2023/05/20 13:11:49;;;;;;;4.40;3.53;;;;;;;21.96;45.46;96465.47;5033456;28;20054;-79
2023/05/20 13:14:20;;;;;;;3.80;3.50;;;;;;;22.03;45.87;96458.06;5034640;28;20052;-80
2023/05/20 13:16:49;;;;;;;4.30;3.53;;;;;;;22.16;45.07;96462.91;5006978;28;20054;-78
2023/05/20 13:19:16;;;;;;;4.18;3.30;;;;;;;22.24;43.76;96455.50;5004569;28;20076;-79
2023/05/20 13:21:44;;;;;;;4.45;3.10;;;;;;;22.30;43.69;96462.44;5007596;28;20054;-79
2023/05/20 13:24:13;;;;;;;4.15;3.75;;;;;;;22.33;43.53;96459.28;5013266;28;20061;-80
2023/05/20 13:26:41;;;;;;;3.90;3.55;;;;;;;22.37;44.19;96455.84;5020935;28;20053;-80
2023/05/20 13:29:09;;;;;;;3.55;3.25;;;;;;;22.42;44.21;96457.72;5025524;28;20049;-78
2023/05/20 13:31:36;;;;;;;4.47;3.22;;;;;;;22.42;43.50;96452.41;5023365;28;20042;-80
2023/05/20 13:34:05;;;;;;;3.95;3.50;;;;;;;22.40;43.61;96441.25;5029608;28;20046;-80
2023/05/20 13:36:33;;;;;;;3.78;3.47;;;;;;;22.36;43.57;96443.63;5007137;28;20046;-79
2023/05/20 13:39:00;;;;;;;4.40;3.60;;;;;;;22.30;44.42;96450.00;5003162;28;20073;-79
2023/05/20 13:41:30;;;;;;;8.77;3.58;;;;;;;22.27;43.20;96439.06;5003364;28;20054;-78
2023/05/20 13:43:57;;;;;;;4.72;3.80;;;;;;;22.30;43.57;96434.03;5004371;28;20046;-77
2023/05/20 13:46:25;;;;;;;4.45;3.50;;;;;;;22.38;44.63;96436.19;5008365;28;20051;-79
2023/05/20 13:48:52;;;;;;;4.10;3.75;;;;;;;22.52;44.32;96435.69;5019384;28;20058;-80
2023/05/20 13:51:20;;;;;;;5.03;4.47;;;;;;;22.62;43.48;96425.09;5007618;28;20458;-79
2023/05/20 13:53:48;;;;;;;6.00;5.15;;;;;;;22.69;43.44;96430.16;5004592;28;20054;-79
2023/05/20 13:56:15;;;;;;;5.93;3.70;;;;;;;22.70;43.33;96426.44;5023391;28;20056;-80
2023/05/20 13:58:44;;;;;;;4.25;3.47;;;;;;;22.72;43.44;96419.78;5025301;28;20053;-80
2023/05/20 14:01:14;;;;;;;3.65;3.35;;;;;;;22.76;43.70;96425.38;5023141;28;20058;-80
2023/05/20 14:03:42;;;;;;;7.47;5.40;;;;;;;22.75;43.27;96413.94;5022644;28;20053;-81
2023/05/20 14:06:10;;;;;;;3.78;3.42;;;;;;;22.73;43.44;96417.94;5021422;28;20085;-80
2023/05/20 14:08:38;;;;;;;5.05;3.90;;;;;;;22.66;43.65;96398.78;5018136;28;20081;-80
2023/05/20 14:11:05;;;;;;;4.07;3.47;;;;;;;22.63;43.68;96395.59;5017969;28;20035;-80
2023/05/20 14:13:33;;;;;;;4.07;3.78;;;;;;;22.61;43.95;96399.56;5016681;28;20054;-80
2023/05/20 14:16:02;;;;;;;5.07;3.90;;;;;;;22.58;43.86;96403.53;5021922;28;20054;-80
2023/05/20 14:18:30;;;;;;;4.57;4.18;;;;;;;22.55;44.42;96395.31;5002815;28;20042;-80
2023/05/20 14:20:57;;;;;;;4.22;3.83;;;;;;;22.53;45.97;96398.22;5017846;28;20147;-80
2023/05/20 14:23:25;;;;;;;3.92;3.53;;;;;;;22.51;45.26;96392.34;5031375;28;20125;-83
2023/05/20 14:25:53;;;;;;;3.70;3.30;;;;;;;22.49;44.07;96383.06;5035621;28;20041;-82
2023/05/20 14:28:21;;;;;;;3.22;3.03;;;;;;;22.47;44.36;96372.69;5034873;28;20033;-79
2023/05/20 14:30:48;;;;;;;3.70;2.83;;;;;;;22.49;43.82;96377.75;5031597;28;20050;-83
2023/05/20 14:33:17;;;;;;;4.43;3.15;;;;;;;22.49;43.60;96375.88;5037812;28;20065;-83
2023/05/20 14:35:45;;;;;;;3.60;3.30;;;;;;;22.50;43.30;96369.50;5037442;28;20053;-84
2023/05/20 14:38:13;;;;;;;3.53;3.13;;;;;;;22.48;43.64;96365.50;5038240;28;20034;-84
2023/05/20 14:40:41;;;;;;;3.65;3.13;;;;;;;22.47;42.90;96362.06;5038176;28;20041;-84
2023/05/20 14:43:08;;;;;;;3.03;2.70;;;;;;;22.48;43.09;96355.69;5038006;28;20137;-83
2023/05/20 14:45:36;;;;;;;3.75;3.03;;;;;;;22.49;43.13;96357.28;5029339;28;20033;-83
2023/05/20 14:48:05;;;;;;;3.30;3.00;;;;;;;22.50;43.66;96348.25;5037475;28;20061;-82
2023/05/20 14:50:34;;;;;;;2.97;2.70;;;;;;;22.52;43.46;96348.78;5027989;28;20046;-83
2023/05/20 14:53:02;;;;;;;4.35;2.70;;;;;;;22.52;43.13;96346.13;5029066;28;20034;-83
2023/05/20 14:55:30;;;;;;;4.32;2.47;;;;;;;22.50;43.88;96347.44;5019281;28;20069;-84
2023/05/20 14:57:58;;;;;;;3.40;2.67;;;;;;;22.48;42.84;96362.84;5018115;28;20040;-83
2023/05/20 15:00:26;;;;;;;3.03;2.80;;;;;;;22.45;42.22;96355.41;5020469;28;20048;-83
2023/05/20 15:02:54;;;;;;;4.85;3.35;;;;;;;22.41;41.48;96353.28;5035706;28;20037;-83
2023/05/20 15:05:22;;;;;;;5.47;3.00;;;;;;;22.37;42.10;96346.91;5028677;28;20057;-82
2023/05/20 15:07:51;;;;;;;3.60;3.30;;;;;;;22.37;42.34;96348.75;5020612;28;20038;-82
2023/05/20 15:10:19;;;;;;;3.70;3.40;;;;;;;22.37;42.66;96359.41;5037590;28;20034;-82
2023/05/20 15:12:46;;;;;;;5.10;4.30;;;;;;;22.39;43.74;96354.59;5037413;28;20033;-85
2023/05/20 15:15:14;;;;;;;4.13;3.72;;;;;;;22.37;47.01;96351.41;5037066;28;20033;-84
2023/05/20 15:17:42;;;;;;;4.85;4.13;;;;;;;22.38;44.29;96353.00;5022779;28;20065;-84
2023/05/20 15:20:10;;;;;;;3.50;3.20;;;;;;;22.42;44.53;96362.06;5031391;28;20057;-83
2023/05/20 15:22:38;;;;;;;5.05;3.63;;;;;;;22.44;45.46;96359.94;5025861;28;20062;-84
2023/05/20 15:25:08;;;;;;;4.45;3.75;;;;;;;22.48;42.88;96363.66;5017355;28;20035;-80
2023/05/20 15:27:35;;;;;;;5.35;3.35;;;;;;;22.49;42.05;96362.59;5017076;28;20061;-82
2023/05/20 15:30:03;;;;;;;3.38;2.95;;;;;;;22.46;45.14;96360.47;5018034;28;20038;-82
2023/05/20 15:32:31;;;;;;;6.93;3.10;;;;;;;22.43;42.55;96363.63;5039830;28;20029;-84
2023/05/20 15:34:59;;;;;;;3.30;2.97;;;;;;;22.43;42.49;96363.63;5039775;28;20073;-84
2023/05/20 15:37:29;;;;;;;5.68;3.22;;;;;;;22.42;41.56;96352.22;5040359;28;20036;-83
2023/05/20 15:39:56;;;;;;;3.20;2.90;;;;;;;22.42;41.22;96357.53;5040005;28;20096;-84
2023/05/20 15:42:26;;;;;;;4.00;3.03;;;;;;;22.44;42.45;96365.25;5039800;28;20058;-83
2023/05/20 15:44:53;;;;;;;3.50;3.20;;;;;;;22.42;42.50;96351.41;5025681;28;20034;-84
2023/05/20 15:47:21;;;;;;;3.30;3.00;;;;;;;22.39;42.14;96352.75;5039534;28;20068;-83
2023/05/20 15:49:49;;;;;;;3.22;2.92;;;;;;;22.38;41.22;96348.47;5036916;28;20056;-83
2023/05/20 15:52:16;;;;;;;4.90;3.05;;;;;;;22.38;41.25;96361.78;5045430;28;20026;-83
2023/05/20 15:54:44;;;;;;;4.70;3.63;;;;;;;22.41;41.75;96360.44;5035513;28;20539;-83
2023/05/20 15:57:12;;;;;;;5.40;3.78;;;;;;;22.38;43.70;96361.78;5026357;28;20053;-83
2023/05/20 15:59:41;;;;;;;4.35;3.70;;;;;;;22.40;42.66;96366.81;5041089;28;20061;-83
2023/05/20 16:02:08;;;;;;;4.25;3.85;;;;;;;22.41;42.70;96365.75;5024061;28;20038;-83
2023/05/20 16:04:36;;;;;;;4.65;4.13;;;;;;;22.44;42.60;96353.81;5041097;28;20036;-83
2023/05/20 16:07:04;;;;;;;5.15;4.75;;;;;;;22.45;42.55;96355.41;5034425;28;20054;-85
2023/05/20 16:09:32;;;;;;;4.82;3.45;;;;;;;22.45;42.05;96364.16;5021082;28;20073;-84
2023/05/20 16:12:01;;;;;;;4.07;3.67;;;;;;;22.44;42.32;96353.81;5028431;28;20050;-84
2023/05/20 16:14:28;;;;;;;5.00;4.20;;;;;;;22.42;41.83;96352.22;5039803;28;20040;-84
2023/05/20 16:16:57;;;;;;;4.40;3.33;;;;;;;22.41;41.42;96360.44;5038349;28;20038;-84
2023/05/20 16:19:25;;;;;;;3.60;3.30;;;;;;;22.38;41.40;96356.44;5040459;28;20037;-84
2023/05/20 16:21:53;;;;;;;3.70;3.40;;;;;;;22.37;42.26;96354.09;5040542;28;20029;-85
2023/05/20 16:24:21;;;;;;;4.05;3.55;;;;;;;22.36;41.65;96339.19;5031446;28;20058;-83
2023/05/20 16:26:48;;;;;;;6.00;3.63;;;;;;;22.33;41.30;96343.16;5021075;28;20038;-84
2023/05/20 16:29:16;;;;;;;6.75;5.47;;;;;;;22.33;42.60;96347.69;5020765;28;20065;-84
2023/05/20 16:31:45;;;;;;;4.43;4.00;;;;;;;22.29;41.74;96352.72;5033712;28;20085;-82
2023/05/20 16:34:15;;;;;;;4.32;3.55;;;;;;;22.27;41.25;96354.03;5033137;28;20053;-85
2023/05/20 16:36:44;;;;;;;3.80;3.42;;;;;;;22.25;40.77;96346.34;5020557;28;20044;-84
2023/05/20 16:39:12;;;;;;;4.15;3.15;;;;;;;22.26;41.86;96347.13;5024598;28;20035;-84
2023/05/20 16:41:40;;;;;;;7.40;3.92;;;;;;;22.26;41.23;96352.44;5020045;28;20042;-84
2023/05/20 16:44:08;;;;;;;4.38;3.97;;;;;;;22.25;43.31;96350.84;5025995;28;20093;-84
2023/05/20 16:46:36;;;;;;;5.63;3.97;;;;;;;22.23;40.81;96353.75;5027911;28;20042;-85
2023/05/20 16:49:04;;;;;;;5.20;4.55;;;;;;;22.21;41.78;96356.66;5038234;28;20026;-84
2023/05/20 16:51:33;;;;;;;5.85;3.90;;;;;;;22.20;40.36;96365.69;5057934;28;20033;-84
2023/05/20 16:54:01;;;;;;;4.30;3.90;;;;;;;22.19;40.65;96366.75;5050757;28;20096;-82
2023/05/20 16:56:28;;;;;;;7.03;4.45;;;;;;;22.18;40.72;96367.00;5020185;28;20042;-82
2023/05/20 16:58:56;;;;;;;10.77;7.95;;;;;;;22.16;40.94;96367.25;5020562;28;20038;-82
2023/05/20 17:01:24;;;;;;;9.27;6.05;;;;;;;22.16;40.71;96367.25;5023217;28;20041;-81
2023/05/20 17:03:51;;;;;;;11.68;6.95;;;;;;;22.14;40.76;96369.38;5026099;28;20026;-82
2023/05/20 17:06:19;;;;;;;8.77;4.28;;;;;;;22.12;41.19;96371.50;5039223;28;20041;-82
2023/05/20 17:08:49;;;;;;;6.00;4.28;;;;;;;22.09;41.82;96374.69;5025149;28;20038;-82
2023/05/20 17:11:17;;;;;;;6.90;4.72;;;;;;;22.08;41.19;96369.63;5027099;28;20034;-79
2023/05/20 17:13:45;;;;;;;6.47;5.07;;;;;;;22.02;41.23;96366.16;5038742;28;20038;-79
2023/05/20 17:16:12;;;;;;;6.75;5.20;;;;;;;22.00;41.67;96362.97;5030287;28;20045;-79
2023/05/20 17:18:40;;;;;;;5.30;4.80;;;;;;;21.98;42.36;96371.19;5019641;28;20034;-78
2023/05/20 17:21:08;;;;;;;6.90;4.47;;;;;;;21.97;42.31;96371.44;5018863;28;20054;-79
2023/05/20 17:23:35;;;;;;;6.60;5.30;;;;;;;21.94;42.19;96370.13;5019819;28;20030;-78
2023/05/20 17:26:04;;;;;;;5.93;4.53;;;;;;;21.93;42.68;96386.28;5039022;28;20056;-79
2023/05/20 17:28:32;;;;;;;6.47;4.93;;;;;;;21.91;45.16;96385.75;5026260;28;20030;-79
2023/05/20 17:31:00;;;;;;;5.60;5.10;;;;;;;21.89;43.03;96390.56;5026645;28;20034;-78
2023/05/20 17:33:27;;;;;;;5.75;5.10;;;;;;;21.86;42.55;96385.75;5039051;28;20034;-79
2023/05/20 17:35:55;;;;;;;5.97;5.20;;;;;;;21.87;42.37;96382.03;5019611;28;20042;-79
2023/05/20 17:38:25;;;;;;;6.32;4.50;;;;;;;21.86;42.89;96380.44;5030499;28;20080;-81
2023/05/20 17:40:52;;;;;;;5.05;4.55;;;;;;;21.85;43.06;96384.16;5038025;28;20033;-79
2023/05/20 17:43:23;;;;;;;5.30;4.25;;;;;;;21.83;43.22;96383.63;5036049;28;20076;-79
2023/05/20 17:45:51;;;;;;;6.90;5.13;;;;;;;21.81;43.34;96392.63;5025337;28;20049;-79
2023/05/20 17:48:19;;;;;;;8.30;5.30;;;;;;;21.79;42.94;96392.09;5038609;28;20038;-82
2023/05/20 17:50:47;;;;;;;6.13;5.10;;;;;;;21.77;43.96;96396.06;5045819;28;20100;-80
2023/05/20 17:53:14;;;;;;;6.28;5.15;;;;;;;21.74;44.33;96389.41;5057057;28;20037;-78
2023/05/20 17:55:45;;;;;;;6.90;5.57;;;;;;;21.69;47.42;96394.69;5014651;28;20085;-79
2023/05/20 17:58:13;;;;;;;7.05;5.30;;;;;;;21.67;44.77;96388.03;5009970;28;20560;-78
2023/05/20 18:00:42;;;;;;;10.63;5.47;;;;;;;21.63;44.59;96393.06;5015748;28;20096;-78
2023/05/20 18:03:10;;;;;;;7.43;5.22;;;;;;;21.61;44.62;96400.50;5009383;28;20479;-77
2023/05/20 18:05:38;;;;;;;6.28;5.20;;;;;;;21.57;44.72;96408.16;5021271;28;20041;-78
2023/05/20 18:08:05;;;;;;;6.47;5.25;;;;;;;21.54;45.08;96405.22;5020310;28;20046;-78
2023/05/20 18:10:33;;;;;;;7.35;5.70;;;;;;;21.49;48.00;96407.84;4995710;28;20050;-77
2023/05/20 18:13:01;;;;;;;6.72;5.55;;;;;;;21.46;45.24;96400.41;4994882;28;20593;-79
2023/05/20 18:15:29;;;;;;;7.15;5.35;;;;;;;21.42;48.32;96401.97;5003108;28;20054;-78
2023/05/20 18:17:58;;;;;;;8.18;6.32;;;;;;;21.35;46.54;96392.34;4994255;28;20096;-78
2023/05/20 18:20:25;;;;;;;17.67;16.08;;;;;;;21.31;46.07;96391.25;4994198;28;20107;-77
2023/05/20 18:22:57;;;;;;;8.80;7.82;;;;;;;21.26;46.18;96391.22;4998844;28;20074;-78
2023/05/20 18:38:06;;;;;;;14.50;10.20;;;;;;;20.91;46.99;96389.88;5095162;23;20045;-81
2023/05/20 18:40:34;;;;;;;16.92;15.30;;;;;;;20.86;47.55;96394.34;5039060;28;20034;-81
2023/05/20 18:43:02;;;;;;;17.30;14.85;;;;;;;20.81;48.25;96397.75;5025488;28;20101;-81
2023/05/20 18:45:30;;;;;;;15.98;14.38;;;;;;;20.76;48.94;96398.50;5018936;28;20035;-81
2023/05/20 18:47:58;;;;;;;12.48;8.23;;;;;;;20.69;48.89;96399.78;5019175;28;20070;-81
2023/05/20 18:50:26;;;;;;;7.10;6.43;;;;;;;20.63;51.15;96400.78;5026100;28;20034;-80
2023/05/20 18:52:54;;;;;;;7.10;5.10;;;;;;;20.57;48.05;96392.78;5019139;28;20349;-80
2023/05/20 18:55:25;;;;;;;8.20;5.68;;;;;;;20.52;47.39;96402.50;5019045;28;20045;-80
2023/05/20 18:57:54;;;;;;;7.13;5.95;;;;;;;20.46;47.55;96401.63;5019314;28;20203;-80
2023/05/20 19:00:22;;;;;;;9.75;6.90;;;;;;;20.42;49.11;96405.03;5018994;28;20030;-81
2023/05/20 19:02:50;;;;;;;9.55;6.47;;;;;;;20.36;48.92;96397.03;5019223;28;20036;-80
2023/05/20 19:05:19;;;;;;;8.60;6.72;;;;;;;20.31;49.18;96404.94;5018901;28;20034;-79
2023/05/20 19:07:47;;;;;;;14.27;8.50;;;;;;;20.26;49.62;96401.41;5018983;28;20033;-80
2023/05/20 19:10:15;;;;;;;11.50;7.85;;;;;;;20.19;49.70;96395.53;5018945;28;20034;-80
2023/05/20 19:12:45;;;;;;;10.70;7.60;;;;;;;20.12;50.06;96409.75;5018818;28;20084;-80
2023/05/20 19:15:14;;;;;;;9.50;7.05;;;;;;;20.04;50.19;96404.88;5018871;28;20030;-80
2023/05/20 19:17:42;;;;;;;9.00;7.80;;;;;;;19.95;50.62;96409.78;5019001;28;20059;-80
2023/05/20 19:23:05;;;;;;;10.48;8.90;;;;;;;19.77;51.04;96407.47;5015516;28;20038;-79
2023/05/20 19:25:34;;;;;;;11.88;9.00;;;;;;;19.68;50.98;96409.69;5018338;28;20081;-79
2023/05/20 19:28:24;;;;;;;13.15;10.35;;;;;;;19.57;50.82;96413.25;5018318;28;20030;-80
2023/05/20 19:30:55;;;;;;;12.30;11.00;;;;;;;19.51;51.74;96411.56;5001403;28;20051;-78
2023/05/20 19:36:05;;;;;;;17.90;12.05;;;;;;;19.33;52.55;96420.56;5654750;23;20258;-78
2023/05/20 19:38:44;;;;;;;14.32;9.95;;;;;;;19.24;52.38;96417.53;5038913;28;20037;-81
2023/05/20 20:03:37;;;;;;;31.52;21.77;;;;;;;18.56;55.45;96436.94;4994689;28;20106;-81
2023/05/20 20:06:05;;;;;;;27.35;19.35;;;;;;;18.48;54.69;96423.09;5006380;28;20120;-81
2023/05/20 20:08:33;;;;;;;28.13;19.65;;;;;;;18.45;57.18;96426.19;5020286;28;20114;-81
2023/05/20 20:11:00;;;;;;;26.95;18.80;;;;;;;18.39;55.25;96421.03;5013363;28;20038;-81
2023/05/20 20:13:29;;;;;;;24.45;18.40;;;;;;;18.33;55.98;96418.31;5001561;28;20042;-80
2023/05/20 20:15:57;;;;;;;21.33;14.98;;;;;;;18.31;55.77;96419.59;4994693;28;20051;-80
2023/05/20 20:18:25;;;;;;;18.45;12.95;;;;;;;18.28;55.84;96422.72;4988941;28;20061;-81
2023/05/20 20:20:54;;;;;;;18.67;13.82;;;;;;;18.22;56.28;96421.00;4993002;28;20051;-81
2023/05/20 20:23:22;;;;;;;14.88;11.82;;;;;;;18.17;55.84;96419.06;4995297;28;20061;-80
2023/05/20 20:25:49;;;;;;;14.43;12.15;;;;;;;18.15;56.20;96415.03;4997139;28;20054;-83
2023/05/20 20:28:17;;;;;;;12.85;10.38;;;;;;;18.11;56.71;96423.44;4998483;28;20054;-82
2023/05/20 20:30:45;;;;;;;13.95;10.23;;;;;;;18.11;59.07;96420.78;4998532;28;20100;-81
2023/05/20 20:33:13;;;;;;;11.88;10.68;;;;;;;18.14;62.08;96421.38;4998612;28;20077;-82
2023/05/20 20:35:40;;;;;;;12.38;7.97;;;;;;;18.08;59.13;96426.56;4997356;28;20061;-81
2023/05/20 20:38:09;;;;;;;9.20;8.27;;;;;;;18.04;57.29;96425.41;4997672;28;20050;-81
2023/05/20 20:40:40;;;;;;;10.25;8.38;;;;;;;18.02;60.64;96426.69;4997228;28;20042;-81
2023/05/20 20:43:09;;;;;;;9.65;8.52;;;;;;;17.97;59.45;96424.72;4999905;28;20054;-80
2023/05/20 20:45:37;;;;;;;9.73;8.20;;;;;;;17.94;59.81;96425.19;4997891;28;20047;-82
2023/05/20 20:48:06;;;;;;;10.00;7.95;;;;;;;17.90;59.56;96414.28;4988747;28;20105;-82
2023/05/20 20:50:35;;;;;;;10.65;7.80;;;;;;;17.89;58.44;96427.75;5001348;28;20490;-82
2023/05/20 20:53:03;;;;;;;9.68;8.30;;;;;;;17.87;62.67;96427.97;4989506;28;20047;-82
2023/05/20 20:55:32;;;;;;;12.15;8.40;;;;;;;17.87;60.58;96432.44;4980778;28;20110;-81
2023/05/20 20:58:02;;;;;;;14.02;9.75;;;;;;;17.84;63.78;96424.97;4980660;28;20055;-82
2023/05/20 21:00:29;;;;;;;10.50;9.40;;;;;;;17.82;64.76;96427.88;4983844;28;20073;-81
2023/05/20 21:02:57;;;;;;;12.75;8.73;;;;;;;17.82;62.43;96417.31;5000360;28;20050;-81
2023/05/20 21:05:25;;;;;;;10.30;9.30;;;;;;;17.81;63.84;96425.41;5000367;28;20077;-82
2023/05/20 21:07:57;;;;;;;9.65;8.40;;;;;;;17.75;61.29;96427.13;5000584;28;20061;-82
2023/05/20 21:10:27;;;;;;;10.25;8.57;;;;;;;17.73;60.58;96423.13;5000660;28;20453;-82
2023/05/20 21:12:57;;;;;;;12.77;10.90;;;;;;;17.76;69.51;96427.97;5000055;28;20052;-82
2023/05/20 21:15:26;;;;;;;10.63;9.52;;;;;;;17.71;62.65;96415.47;4999590;28;20050;-82
2023/05/20 21:17:54;;;;;;;13.85;10.50;;;;;;;17.73;66.06;96417.84;5000810;28;20573;-81
2023/05/20 21:20:22;;;;;;;14.32;10.43;;;;;;;17.68;64.03;96416.69;5016432;28;20049;-83
2023/05/20 21:22:50;;;;;;;13.75;9.82;;;;;;;17.68;64.51;96419.34;5017857;28;20122;-82
2023/05/20 21:25:18;;;;;;;14.18;10.88;;;;;;;17.74;70.18;96416.84;5017940;28;20054;-83
2023/05/20 21:27:46;;;;;;;12.57;11.20;;;;;;;17.77;72.07;96409.25;5009852;28;20047;-82
2023/05/20 21:30:16;;;;;;;13.07;11.50;;;;;;;17.76;71.12;96412.91;4999290;28;20093;-83
2023/05/20 21:32:44;;;;;;;13.98;11.30;;;;;;;17.69;66.01;96401.69;4997519;28;20057;-82
2023/05/20 21:35:12;;;;;;;19.40;11.30;;;;;;;17.65;68.31;96406.63;4995947;28;20054;-82
2023/05/20 21:37:39;;;;;;;14.10;10.25;;;;;;;17.65;65.47;96404.00;4997112;28;20108;-82
2023/05/20 21:40:08;;;;;;;13.90;12.45;;;;;;;17.68;72.68;96400.88;4997179;28;20054;-82
2023/05/20 21:42:36;;;;;;;15.23;12.10;;;;;;;17.70;72.45;96409.38;4998352;28;20050;-84
2023/05/20 21:45:05;;;;;;;16.33;12.38;;;;;;;17.68;68.78;96406.16;4996862;28;20058;-84
2023/05/20 21:47:35;;;;;;;13.27;10.88;;;;;;;17.61;65.78;96412.59;4997358;28;20061;-84
2023/05/20 21:50:05;;;;;;;15.95;11.23;;;;;;;17.55;65.19;96402.97;4997682;28;20097;-82
2023/05/20 21:52:33;;;;;;;15.38;11.45;;;;;;;17.53;64.51;96403.19;4997734;28;20082;-84
2023/05/20 21:55:01;;;;;;;14.10;10.75;;;;;;;17.50;63.52;96408.94;4998794;28;20077;-82
2023/05/20 21:57:28;;;;;;;17.85;11.75;;;;;;;17.48;64.23;96403.09;4997438;28;20054;-82
2023/05/20 21:59:56;;;;;;;12.52;10.50;;;;;;;17.44;63.96;96396.66;4998367;28;20050;-82
2023/05/20 22:02:26;;;;;;;14.70;10.45;;;;;;;17.42;65.87;96396.09;4999146;28;20043;-82
2023/05/20 22:04:56;;;;;;;13.82;11.27;;;;;;;17.41;64.29;96391.84;4997595;28;20065;-82
2023/05/20 22:07:24;;;;;;;15.05;10.77;;;;;;;17.42;68.62;96388.19;4998512;28;20148;-84
2023/05/20 22:09:52;;;;;;;13.45;9.73;;;;;;;17.43;65.52;96387.16;4997792;28;20078;-82
2023/05/20 22:12:20;;;;;;;12.25;9.80;;;;;;;17.38;64.56;96379.13;4998877;28;20050;-83
2023/05/20 22:14:48;;;;;;;12.57;10.45;;;;;;;17.39;63.52;96383.38;5007736;28;20066;-84
2023/05/20 22:17:17;;;;;;;13.13;10.32;;;;;;;17.35;63.28;96377.75;5016004;28;20308;-82
2023/05/20 22:19:46;;;;;;;13.85;10.43;;;;;;;17.32;62.71;96369.47;5016520;28;20596;-84
2023/05/20 22:22:15;;;;;;;18.25;11.35;;;;;;;17.32;68.89;96377.41;5015457;28;20058;-84
2023/05/20 22:24:43;;;;;;;13.65;10.55;;;;;;;17.30;64.83;96373.16;5012136;28;20077;-84
2023/05/20 22:27:10;;;;;;;14.25;11.85;;;;;;;17.29;65.98;96376.03;5009923;28;20054;-83
2023/05/20 22:29:38;;;;;;;15.85;11.10;;;;;;;17.27;64.75;96375.44;5004284;28;20137;-84
2023/05/20 22:32:06;;;;;;;13.73;11.30;;;;;;;17.25;63.88;96372.25;5000883;28;20082;-84
2023/05/20 22:34:35;;;;;;;12.73;10.82;;;;;;;17.22;64.67;96370.88;4999732;28;20498;-84
2023/05/20 22:37:03;;;;;;;14.88;11.88;;;;;;;17.24;69.01;96373.28;5000486;28;20125;-83
2023/05/20 22:39:32;;;;;;;14.05;10.57;;;;;;;17.22;65.36;96370.06;5000243;28;20425;-82
2023/05/20 22:42:00;;;;;;;17.73;11.55;;;;;;;17.20;64.04;96367.66;5000047;28;20050;-82
2023/05/20 22:44:28;;;;;;;17.88;10.63;;;;;;;17.21;63.68;96369.28;4999446;28;20117;-83
2023/05/20 22:46:56;;;;;;;18.35;12.00;;;;;;;17.21;67.59;96357.94;5000447;28;20054;-82
2023/05/20 22:49:26;;;;;;;13.40;10.38;;;;;;;17.20;64.75;96362.38;4999707;28;20062;-83
2023/05/20 22:51:54;;;;;;;13.50;10.82;;;;;;;17.16;63.66;96355.97;5021384;23;20057;-81
2023/05/20 22:54:22;;;;;;;15.10;13.50;;;;;;;17.18;71.45;96359.19;5002370;28;20094;-81
2023/05/20 22:56:55;;;;;;;14.40;11.13;;;;;;;17.19;66.29;96355.53;5000587;28;20054;-81
2023/05/20 22:59:23;;;;;;;11.88;9.52;;;;;;;17.14;64.21;96346.69;4999749;28;20512;-80
2023/05/20 23:01:51;;;;;;;12.07;10.23;;;;;;;17.12;64.17;96349.56;4999737;28;20042;-80
2023/05/20 23:04:19;;;;;;;12.73;10.00;;;;;;;17.09;64.02;96339.47;5000579;28;20058;-81